createdAt,value
2017-06-10T00:02:24.595Z,69.00
2017-06-10T00:04:52.177Z,69.50
2017-06-10T00:07:19.843Z,68.70
2017-06-10T00:09:47.402Z,69.30
2017-06-10T00:12:15.759Z,69.90
2017-06-10T00:14:43.350Z,70.30
2017-06-10T00:17:10.954Z,70.70
2017-06-10T00:19:41.439Z,70.50
2017-06-10T00:22:09.019Z,70.80
2017-06-10T00:24:37.347Z,72.00
2017-06-10T00:27:05.071Z,71.10
2017-06-10T00:29:32.646Z,71.40
2017-06-10T00:32:00.299Z,71.70
2017-06-10T00:34:27.870Z,72.20
2017-06-10T00:36:55.448Z,72.70
2017-06-10T00:39:23.014Z,72.70
2017-06-10T00:41:50.606Z,73.30
2017-06-10T00:44:18.179Z,73.60
2017-06-10T00:46:45.749Z,73.80
2017-06-10T00:49:14.151Z,74.00
2017-06-10T00:51:41.762Z,74.00
2017-06-10T00:54:09.346Z,74.40
2017-06-10T00:56:36.932Z,74.10
2017-06-10T00:59:05.291Z,75.30
2017-06-10T01:01:32.863Z,76.20
2017-06-10T01:04:01.333Z,76.10
2017-06-10T01:06:28.906Z,75.10
2017-06-10T01:08:57.263Z,75.80
2017-06-10T01:11:24.853Z,75.80
2017-06-10T01:13:52.421Z,76.10
2017-06-10T01:16:19.991Z,75.70
2017-06-10T01:18:47.586Z,76.10
2017-06-10T01:21:15.149Z,76.60
2017-06-10T01:23:42.712Z,77.00
2017-06-10T01:26:10.294Z,77.50
2017-06-10T01:28:37.932Z,77.60
2017-06-10T01:31:05.566Z,77.80
2017-06-10T01:33:33.137Z,78.40
2017-06-10T01:36:00.689Z,78.10
2017-06-10T01:38:28.309Z,78.20
2017-06-10T01:40:56.682Z,78.90
2017-06-10T01:43:24.259Z,78.80
2017-06-10T01:45:52.603Z,79.20
2017-06-10T01:48:20.275Z,79.20
2017-06-10T01:50:47.837Z,78.90
2017-06-10T01:53:15.431Z,78.60
2017-06-10T01:55:43.046Z,78.40
2017-06-10T01:58:10.602Z,78.40
2017-06-10T02:00:38.162Z,78.20
2017-06-10T02:03:05.930Z,77.70
2017-06-10T02:05:33.481Z,78.20
2017-06-10T02:08:01.039Z,78.10
2017-06-10T02:10:28.627Z,78.00
2017-06-10T02:12:56.194Z,78.10
2017-06-10T02:15:24.765Z,78.00
2017-06-10T02:17:53.151Z,77.90
2017-06-10T02:20:20.714Z,78.20
2017-06-10T02:22:48.302Z,78.50
2017-06-10T02:25:16.626Z,78.90
2017-06-10T02:27:44.223Z,78.80
2017-06-10T02:30:11.785Z,78.80
2017-06-10T02:32:39.347Z,78.70
2017-06-10T02:35:06.951Z,78.50
2017-06-10T02:37:34.621Z,78.80
2017-06-10T02:40:02.192Z,79.30
2017-06-10T02:42:29.773Z,79.30
2017-06-10T02:44:57.333Z,79.40
2017-06-10T02:47:24.897Z,79.10
2017-06-10T02:49:52.494Z,78.90
2017-06-10T02:52:20.822Z,78.70
2017-06-10T02:54:48.409Z,78.50
2017-06-10T02:57:15.993Z,78.00
2017-06-10T02:59:44.332Z,78.20
2017-06-10T03:02:11.955Z,78.20
2017-06-10T03:04:39.547Z,78.30
2017-06-10T03:07:07.139Z,78.30
2017-06-10T03:09:34.716Z,78.30
2017-06-10T03:12:03.049Z,78.30
2017-06-10T03:14:30.630Z,78.20
2017-06-10T03:16:58.247Z,78.80
2017-06-10T03:19:25.798Z,77.60
2017-06-10T03:21:53.398Z,77.40
2017-06-10T03:24:20.964Z,77.30
2017-06-10T03:26:48.519Z,76.90
2017-06-10T03:29:16.138Z,77.20
2017-06-10T03:31:43.691Z,77.10
2017-06-10T03:34:11.250Z,77.00
2017-06-10T03:36:38.890Z,77.10
2017-06-10T03:39:06.450Z,76.70
2017-06-10T03:41:34.048Z,76.20
2017-06-10T03:44:01.598Z,76.20
2017-06-10T03:46:29.831Z,75.70
2017-06-10T03:48:57.442Z,75.40
2017-06-10T03:51:25.015Z,75.10
2017-06-10T03:53:52.590Z,74.80
2017-06-10T03:56:20.173Z,74.70
2017-06-10T03:58:47.759Z,74.70
2017-06-10T04:01:15.350Z,73.90
2017-06-10T04:03:42.912Z,73.30
2017-06-10T04:06:10.527Z,73.30
2017-06-10T04:08:38.160Z,72.30
2017-06-10T04:11:05.727Z,72.50
2017-06-10T04:13:33.288Z,72.00
2017-06-10T04:16:00.856Z,69.80
2017-06-10T04:18:29.208Z,65.30
2017-06-10T04:20:56.782Z,61.50
2017-06-10T04:23:24.377Z,59.50
2017-06-10T04:25:51.932Z,57.40
2017-06-10T04:28:19.862Z,55.70
2017-06-10T04:30:47.418Z,54.10
2017-06-10T04:33:15.010Z,52.70
2017-06-10T04:35:42.598Z,50.30
2017-06-10T04:38:10.934Z,46.10
2017-06-10T04:40:39.356Z,45.90
2017-06-10T04:43:06.956Z,45.60
2017-06-10T04:45:34.543Z,44.20
2017-06-10T04:48:02.199Z,43.90
2017-06-10T04:50:29.790Z,42.80
2017-06-10T04:52:57.378Z,41.80
2017-06-10T04:55:25.709Z,40.70
2017-06-10T04:57:53.310Z,40.70
2017-06-10T05:00:20.894Z,40.40
2017-06-10T05:02:48.462Z,39.40
2017-06-10T05:05:16.079Z,38.70
2017-06-10T05:07:43.633Z,37.70
2017-06-10T05:10:11.210Z,38.00
2017-06-10T05:12:38.773Z,37.50
2017-06-10T05:15:06.358Z,36.80
2017-06-10T05:17:33.926Z,35.60
2017-06-10T05:20:01.530Z,34.30
2017-06-10T05:22:29.131Z,34.40
2017-06-10T05:24:57.467Z,34.70
2017-06-10T05:27:25.029Z,34.60
2017-06-10T05:29:52.603Z,34.70
2017-06-10T05:32:20.171Z,35.70
2017-06-10T05:34:47.765Z,35.90
2017-06-10T05:37:15.378Z,35.70
2017-06-10T05:39:42.977Z,35.40
2017-06-10T05:42:10.538Z,35.40
2017-06-10T05:44:38.940Z,33.60
2017-06-10T05:47:06.510Z,33.60
2017-06-10T05:49:34.083Z,33.70
2017-06-10T05:52:01.641Z,31.90
2017-06-10T05:54:29.210Z,33.00
2017-06-10T05:56:56.882Z,32.10
2017-06-10T05:59:24.446Z,30.70
2017-06-10T06:01:52.048Z,30.00
2017-06-10T06:04:20.430Z,30.60
2017-06-10T06:06:48.022Z,30.50
2017-06-10T06:09:15.580Z,31.50
2017-06-10T06:11:43.150Z,32.60
2017-06-10T06:14:10.734Z,31.60
2017-06-10T06:16:38.295Z,31.60
2017-06-10T06:19:05.882Z,30.20
2017-06-10T06:21:34.259Z,29.90
2017-06-10T06:24:02.620Z,29.10
2017-06-10T06:26:30.181Z,29.10
2017-06-10T06:28:57.846Z,29.60
2017-06-10T06:31:25.430Z,29.80
2017-06-10T06:33:53.758Z,28.60
2017-06-10T06:36:21.342Z,28.50
2017-06-10T06:38:48.909Z,29.20
2017-06-10T06:41:16.458Z,29.80
2017-06-10T06:43:44.079Z,29.10
2017-06-10T06:46:11.647Z,29.00
2017-06-10T06:48:39.206Z,29.80
2017-06-10T06:51:06.797Z,29.70
2017-06-10T06:53:34.389Z,29.90
2017-06-10T06:56:01.939Z,28.20
2017-06-10T06:58:29.554Z,29.30
2017-06-10T07:00:57.137Z,30.30
2017-06-10T07:03:24.710Z,30.50
2017-06-10T07:05:52.301Z,31.00
2017-06-10T07:08:19.929Z,32.70
2017-06-10T07:10:47.562Z,32.30
2017-06-10T07:13:15.414Z,31.40
2017-06-10T07:15:43.002Z,31.00
2017-06-10T07:18:10.587Z,30.60
2017-06-10T07:20:38.183Z,30.80
2017-06-10T07:23:05.754Z,30.90
2017-06-10T07:25:33.344Z,30.90
2017-06-10T07:28:00.902Z,30.10
2017-06-10T07:30:28.483Z,30.50
2017-06-10T07:32:56.041Z,32.30
2017-06-10T07:35:23.599Z,30.30
2017-06-10T07:37:51.182Z,29.30
2017-06-10T07:40:18.737Z,29.70
2017-06-10T07:42:46.294Z,29.80
2017-06-10T07:45:13.908Z,30.20
2017-06-10T07:47:41.478Z,29.40
2017-06-10T07:50:09.054Z,29.60
2017-06-10T07:52:36.647Z,29.40
2017-06-10T07:55:04.226Z,30.20
2017-06-10T07:57:32.587Z,29.60
2017-06-10T08:00:00.147Z,29.50
2017-06-10T08:02:27.722Z,31.30
2017-06-10T08:04:56.313Z,28.50
2017-06-10T08:07:23.874Z,28.40
2017-06-10T08:09:52.227Z,29.00
2017-06-10T08:12:19.823Z,28.90
2017-06-10T08:14:47.617Z,27.50
2017-06-10T08:17:15.194Z,29.20
2017-06-10T08:19:42.813Z,26.50
2017-06-10T08:22:10.386Z,26.80
2017-06-10T08:24:38.010Z,26.00
2017-06-10T08:27:05.595Z,26.50
2017-06-10T08:29:33.919Z,27.30
2017-06-10T08:32:01.524Z,27.30
2017-06-10T08:34:29.914Z,27.10
2017-06-10T08:36:58.256Z,26.30
2017-06-10T08:39:25.814Z,26.30
2017-06-10T08:41:53.398Z,25.30
2017-06-10T08:44:21.034Z,26.40
2017-06-10T08:46:48.615Z,26.60
2017-06-10T08:49:16.186Z,26.60
2017-06-10T08:51:44.551Z,26.10
2017-06-10T08:54:12.122Z,26.10
2017-06-10T08:56:40.212Z,26.60
2017-06-10T08:59:08.549Z,25.30
2017-06-10T09:01:36.143Z,25.20
2017-06-10T09:04:04.468Z,26.80
2017-06-10T09:06:32.346Z,26.80
2017-06-10T09:08:59.930Z,26.10
2017-06-10T09:11:27.500Z,27.30
2017-06-10T09:13:55.092Z,28.00
2017-06-10T09:16:23.438Z,28.60
2017-06-10T09:18:51.219Z,28.60
2017-06-10T09:21:18.806Z,29.60
2017-06-10T09:23:46.421Z,29.90
2017-06-10T09:26:14.042Z,28.40
2017-06-10T09:28:41.646Z,29.10
2017-06-10T09:31:09.207Z,27.40
2017-06-10T09:33:36.804Z,27.40
2017-06-10T09:36:04.429Z,26.60
2017-06-10T09:38:32.002Z,27.70
2017-06-10T09:40:59.634Z,27.10
2017-06-10T09:43:27.202Z,28.20
2017-06-10T09:45:54.766Z,27.40
2017-06-10T09:48:22.345Z,29.30
2017-06-10T09:50:49.907Z,27.40
2017-06-10T09:53:17.498Z,27.60
2017-06-10T09:55:45.139Z,29.80
2017-06-10T09:58:13.526Z,28.60
2017-06-10T10:00:42.128Z,28.60
2017-06-10T10:03:10.429Z,29.50
2017-06-10T10:05:38.038Z,29.50
2017-06-10T10:08:05.619Z,29.30
2017-06-10T10:10:33.187Z,28.30
2017-06-10T10:13:00.772Z,28.70
2017-06-10T10:15:28.331Z,28.30
2017-06-10T10:17:55.932Z,27.80
2017-06-10T10:20:23.508Z,28.30
2017-06-10T10:22:51.065Z,29.10
2017-06-10T10:25:18.705Z,27.80
2017-06-10T10:27:46.275Z,28.40
2017-06-10T10:30:13.837Z,26.50
2017-06-10T10:32:41.418Z,28.50
2017-06-10T10:35:09.769Z,27.20
2017-06-10T10:37:37.339Z,27.30
2017-06-10T10:40:05.457Z,28.50
2017-06-10T10:42:33.051Z,29.30
2017-06-10T10:45:00.596Z,28.50
2017-06-10T10:47:28.178Z,28.70
2017-06-10T10:49:55.774Z,27.40
2017-06-10T10:52:23.310Z,28.40
2017-06-10T10:54:50.911Z,26.70
2017-06-10T10:57:18.498Z,28.20
2017-06-10T10:59:46.177Z,28.80
2017-06-10T11:02:13.750Z,30.00
2017-06-10T11:04:41.294Z,31.60
2017-06-10T11:07:08.905Z,28.30
2017-06-10T11:09:36.470Z,29.40
2017-06-10T11:12:04.798Z,30.00
2017-06-10T11:14:32.379Z,29.90
2017-06-10T11:17:00.041Z,29.90
2017-06-10T11:19:27.611Z,31.80
2017-06-10T11:21:55.190Z,31.50
2017-06-10T11:24:23.557Z,29.30
2017-06-10T11:26:51.126Z,29.10
2017-06-10T11:29:19.486Z,31.70
2017-06-10T11:31:47.063Z,31.80
2017-06-10T11:34:15.402Z,31.00
2017-06-10T11:36:42.986Z,31.00
2017-06-10T11:39:10.611Z,30.10
2017-06-10T11:41:38.226Z,31.10
2017-06-10T11:44:06.273Z,31.40
2017-06-10T11:46:33.854Z,28.40
2017-06-10T11:49:01.445Z,30.60
2017-06-10T11:51:29.770Z,30.00
2017-06-10T11:53:57.370Z,30.00
2017-06-10T11:56:25.704Z,32.10
2017-06-10T11:58:53.290Z,32.30
2017-06-10T12:01:20.877Z,32.50
2017-06-10T12:03:48.440Z,30.00
2017-06-10T12:06:15.996Z,31.70
2017-06-10T12:08:43.599Z,33.30
2017-06-10T12:11:11.171Z,33.40
2017-06-10T12:13:38.747Z,32.10
2017-06-10T12:16:06.306Z,32.30
2017-06-10T12:18:33.905Z,29.90
2017-06-10T12:21:02.274Z,32.90
2017-06-10T12:23:30.623Z,33.00
2017-06-10T12:25:58.235Z,32.30
2017-06-10T12:28:25.806Z,33.80
2017-06-10T12:30:53.405Z,33.40
2017-06-10T12:33:20.978Z,34.10
2017-06-10T12:35:48.566Z,33.10
2017-06-10T12:38:16.150Z,34.60
2017-06-10T12:40:43.721Z,35.10
2017-06-10T12:43:11.300Z,34.70
2017-06-10T12:45:38.914Z,33.20
2017-06-10T12:48:07.494Z,33.80
2017-06-10T12:50:35.078Z,33.60
2017-06-10T12:53:02.692Z,32.80
2017-06-10T12:55:30.334Z,34.40
2017-06-10T12:57:58.002Z,34.10
2017-06-10T13:00:25.579Z,34.40
2017-06-10T13:02:53.169Z,35.90
2017-06-10T13:05:20.762Z,30.20
2017-06-10T13:07:48.365Z,30.70
2017-06-10T13:10:15.950Z,30.80
2017-06-10T13:12:44.315Z,34.70
2017-06-10T13:15:11.882Z,34.50
2017-06-10T13:17:40.257Z,32.80
2017-06-10T13:20:07.908Z,32.70
2017-06-10T13:22:35.483Z,32.40
2017-06-10T13:25:03.041Z,32.30
2017-06-10T13:27:30.638Z,33.50
2017-06-10T13:29:58.204Z,34.10
2017-06-10T13:32:25.768Z,34.40
2017-06-10T13:34:53.343Z,34.60
2017-06-10T13:37:20.962Z,34.90
2017-06-10T13:39:49.294Z,32.00
2017-06-10T13:42:16.850Z,32.00
2017-06-10T13:44:44.443Z,32.00
2017-06-10T13:47:12.005Z,35.00
2017-06-10T13:49:39.574Z,33.20
2017-06-10T13:52:07.166Z,35.80
2017-06-10T13:54:34.738Z,34.00
2017-06-10T13:57:02.315Z,37.10
2017-06-10T13:59:29.917Z,38.90
2017-06-10T14:01:57.507Z,36.30
2017-06-10T14:04:25.071Z,36.00
2017-06-10T14:06:52.643Z,37.60
2017-06-10T14:09:20.206Z,37.80
2017-06-10T14:11:47.823Z,38.60
2017-06-10T14:14:15.402Z,37.40
2017-06-10T14:16:42.968Z,37.60
2017-06-10T14:19:10.544Z,38.50
2017-06-10T14:21:38.107Z,37.70
2017-06-10T14:24:05.744Z,35.90
2017-06-10T14:26:34.074Z,36.30
2017-06-10T14:29:01.687Z,36.20
2017-06-10T14:31:30.035Z,35.20
2017-06-10T14:33:57.728Z,35.20
2017-06-10T14:36:26.075Z,37.20
2017-06-10T14:38:53.639Z,37.30
2017-06-10T14:41:21.227Z,36.40
2017-06-10T14:43:49.582Z,35.90
2017-06-10T14:46:18.085Z,35.80
2017-06-10T14:48:46.634Z,37.80
2017-06-10T14:51:14.196Z,37.80
2017-06-10T14:53:41.758Z,37.40
2017-06-10T14:56:09.337Z,36.60
2017-06-10T14:58:36.894Z,39.20
2017-06-10T15:01:04.446Z,36.50
2017-06-10T15:03:32.040Z,38.80
2017-06-10T15:06:00.367Z,37.30
2017-06-10T15:08:27.958Z,37.20
2017-06-10T15:10:55.554Z,36.80
2017-06-10T15:13:23.132Z,37.10
2017-06-10T15:15:50.689Z,36.50
2017-06-10T15:18:18.402Z,37.80
2017-06-10T15:20:45.959Z,37.00
2017-06-10T15:23:13.573Z,35.50
2017-06-10T15:25:41.151Z,34.40
2017-06-10T15:28:08.708Z,36.00
2017-06-10T15:30:36.270Z,36.50
2017-06-10T15:33:03.910Z,38.20
2017-06-10T15:35:31.498Z,39.20
2017-06-10T15:37:59.058Z,39.40
2017-06-10T15:40:26.639Z,36.60
2017-06-10T15:42:54.226Z,34.80
2017-06-10T15:45:22.567Z,38.00
2017-06-10T15:47:50.125Z,38.60
2017-06-10T15:50:17.751Z,36.10
2017-06-10T15:52:45.319Z,37.30
2017-06-10T15:55:12.890Z,36.30
2017-06-10T15:57:40.433Z,37.90
2017-06-10T16:00:08.015Z,38.30
2017-06-10T16:02:35.590Z,39.30
2017-06-10T16:05:03.160Z,38.60
2017-06-10T16:07:30.741Z,37.70
2017-06-10T16:09:58.319Z,39.00
2017-06-10T16:12:25.872Z,40.90
2017-06-10T16:14:53.535Z,39.00
2017-06-10T16:17:21.093Z,39.10
2017-06-10T16:19:48.658Z,40.80
2017-06-10T16:22:17.018Z,39.60
2017-06-10T16:24:44.610Z,39.50
2017-06-10T16:27:12.957Z,38.50
2017-06-10T16:29:40.496Z,38.50
2017-06-10T16:32:08.147Z,39.10
2017-06-10T16:34:35.728Z,40.10
2017-06-10T16:37:03.301Z,40.00
2017-06-10T16:39:30.890Z,38.20
2017-06-10T16:41:59.218Z,39.60
2017-06-10T16:44:26.861Z,39.50
2017-06-10T16:46:54.479Z,39.10
2017-06-10T16:49:22.053Z,37.60
2017-06-10T16:51:50.360Z,37.80
2017-06-10T16:54:17.937Z,37.80
2017-06-10T16:56:45.492Z,39.40
2017-06-10T16:59:13.119Z,38.20
2017-06-10T17:01:40.678Z,39.00
2017-06-10T17:04:09.002Z,39.60
2017-06-10T17:06:36.587Z,39.20
2017-06-10T17:09:04.159Z,38.20
2017-06-10T17:11:31.745Z,38.30
2017-06-10T17:13:59.346Z,38.80
2017-06-10T17:16:27.062Z,39.40
2017-06-10T17:18:54.658Z,40.50
2017-06-10T17:21:22.341Z,40.20
2017-06-10T17:23:49.914Z,39.90
2017-06-10T17:26:17.479Z,41.30
2017-06-10T17:28:45.112Z,40.90
2017-06-10T17:31:12.693Z,40.00
2017-06-10T17:33:40.288Z,39.80
2017-06-10T17:36:07.958Z,40.40
2017-06-10T17:38:35.522Z,40.80
2017-06-10T17:41:03.112Z,40.00
2017-06-10T17:43:30.697Z,38.20
2017-06-10T17:45:58.294Z,39.90
2017-06-10T17:48:25.913Z,40.60
2017-06-10T17:50:53.487Z,41.20
2017-06-10T17:53:21.064Z,40.80
2017-06-10T17:55:48.648Z,40.60
2017-06-10T17:58:17.011Z,41.30
2017-06-10T18:00:44.560Z,41.20
2017-06-10T18:03:12.222Z,41.40
2017-06-10T18:05:39.823Z,41.90
2017-06-10T18:08:08.150Z,41.80
2017-06-10T18:10:35.722Z,41.80
2017-06-10T18:13:03.317Z,43.00
2017-06-10T18:15:31.682Z,42.50
2017-06-10T18:18:00.022Z,42.50
2017-06-10T18:20:27.643Z,42.40
2017-06-10T18:22:56.008Z,42.70
2017-06-10T18:25:24.342Z,42.90
2017-06-10T18:27:51.991Z,42.20
2017-06-10T18:30:19.597Z,43.60
2017-06-10T18:32:47.160Z,43.10
2017-06-10T18:35:14.761Z,42.00
2017-06-10T18:37:42.444Z,42.90
2017-06-10T18:40:10.019Z,44.20
2017-06-10T18:42:37.630Z,43.20
2017-06-10T18:45:05.247Z,44.40
2017-06-10T18:47:33.727Z,43.60
2017-06-10T18:50:01.313Z,43.50
2017-06-10T18:52:28.898Z,44.80
2017-06-10T18:54:56.466Z,44.50
2017-06-10T18:57:24.053Z,45.60
2017-06-10T18:59:51.649Z,45.80
2017-06-10T19:02:19.237Z,46.50
2017-06-10T19:04:47.587Z,45.70
2017-06-10T19:07:15.175Z,45.70
2017-06-10T19:09:42.839Z,46.20
2017-06-10T19:12:10.413Z,46.40
2017-06-10T19:14:37.995Z,47.30
2017-06-10T19:17:05.607Z,48.20
2017-06-10T19:19:33.158Z,48.80
2017-06-10T19:22:00.718Z,47.00
2017-06-10T19:24:28.312Z,47.50
2017-06-10T19:26:55.895Z,48.70
2017-06-10T19:29:23.473Z,49.00
2017-06-10T19:31:51.084Z,49.10
2017-06-10T19:34:18.658Z,48.70
2017-06-10T19:36:46.275Z,50.10
2017-06-10T19:39:13.843Z,50.00
2017-06-10T19:41:41.443Z,51.90
2017-06-10T19:44:09.037Z,52.00
2017-06-10T19:46:36.611Z,53.40
2017-06-10T19:49:04.232Z,53.90
2017-06-10T19:51:31.839Z,54.40
2017-06-10T19:54:00.555Z,53.60
2017-06-10T19:56:28.166Z,55.30
2017-06-10T19:58:55.742Z,55.40
2017-06-10T20:01:23.358Z,55.80
2017-06-10T20:03:50.960Z,56.10
2017-06-10T20:06:18.578Z,56.10
2017-06-10T20:08:46.922Z,57.00
2017-06-10T20:11:14.487Z,56.90
2017-06-10T20:13:42.055Z,57.30
2017-06-10T20:16:09.667Z,57.80
2017-06-10T20:18:37.255Z,56.80
2017-06-10T20:21:04.835Z,57.60
2017-06-10T20:23:32.415Z,57.40
2017-06-10T20:26:00.765Z,57.80
2017-06-10T20:28:28.349Z,57.80
2017-06-10T20:30:56.675Z,58.50
2017-06-10T20:33:25.121Z,57.80
2017-06-10T20:35:53.519Z,58.40
2017-06-10T20:38:21.953Z,58.40
2017-06-10T20:40:49.527Z,58.60
2017-06-10T20:43:17.113Z,58.80
2017-06-10T20:45:44.679Z,58.60
2017-06-10T20:48:12.243Z,59.40
2017-06-10T20:50:39.832Z,58.80
2017-06-10T20:53:07.425Z,58.90
2017-06-10T20:55:35.058Z,59.00
2017-06-10T20:58:02.618Z,59.60
2017-06-10T21:00:30.347Z,58.90
2017-06-10T21:02:58.686Z,58.80
2017-06-10T21:05:26.254Z,58.80
2017-06-10T21:07:53.843Z,58.70
2017-06-10T21:10:21.422Z,58.60
2017-06-10T21:12:49.173Z,58.30
2017-06-10T21:15:16.761Z,57.60
2017-06-10T21:17:44.342Z,57.80
2017-06-10T21:20:11.928Z,57.40
2017-06-10T21:22:39.512Z,57.20
2017-06-10T21:25:08.125Z,56.90
2017-06-10T21:27:35.730Z,56.90
2017-06-10T21:30:03.319Z,56.80
2017-06-10T21:32:30.887Z,56.80
2017-06-10T21:34:58.445Z,56.60
2017-06-10T21:37:26.146Z,56.70
2017-06-10T21:39:53.708Z,57.10
2017-06-10T21:42:21.262Z,57.10
2017-06-10T21:44:48.868Z,57.20
2017-06-10T21:47:16.430Z,57.30
2017-06-10T21:49:44.020Z,57.40
2017-06-10T21:52:11.698Z,57.60
2017-06-10T21:54:39.251Z,57.60
2017-06-10T21:57:06.826Z,57.70
2017-06-10T21:59:34.490Z,58.40
2017-06-10T22:02:02.059Z,57.90
2017-06-10T22:04:29.666Z,57.90
2017-06-10T22:06:57.319Z,58.10
2017-06-10T22:09:24.906Z,58.90
2017-06-10T22:11:53.253Z,58.50
2017-06-10T22:14:20.817Z,58.40
2017-06-10T22:16:48.394Z,58.70
2017-06-10T22:19:16.753Z,58.90
2017-06-10T22:21:44.394Z,58.70
2017-06-10T22:24:12.123Z,58.90
2017-06-10T22:26:39.674Z,58.80
2017-06-10T22:29:07.256Z,59.10
2017-06-10T22:31:34.853Z,59.40
2017-06-10T22:34:02.421Z,59.40
2017-06-10T22:36:30.038Z,59.40
2017-06-10T22:38:57.618Z,59.60
2017-06-10T22:41:25.166Z,59.50
2017-06-10T22:43:52.762Z,59.80
2017-06-10T22:46:20.374Z,59.90
2017-06-10T22:48:47.932Z,59.70
2017-06-10T22:51:15.514Z,59.60
2017-06-10T22:53:43.080Z,59.50
2017-06-10T22:56:10.669Z,59.70
2017-06-10T22:58:38.254Z,59.60
2017-06-10T23:01:05.879Z,59.80
2017-06-10T23:03:33.430Z,59.60
2017-06-10T23:06:01.030Z,59.80
2017-06-10T23:08:28.574Z,59.80
2017-06-10T23:10:56.179Z,59.70
2017-06-10T23:13:23.759Z,60.30
2017-06-10T23:15:51.331Z,60.10
2017-06-10T23:18:19.861Z,60.40
2017-06-10T23:20:48.174Z,60.50
2017-06-10T23:23:15.753Z,60.40
2017-06-10T23:25:43.332Z,60.60
2017-06-10T23:28:10.994Z,60.60
2017-06-10T23:30:38.575Z,60.80
2017-06-10T23:33:06.146Z,61.10
2017-06-10T23:35:33.734Z,61.10
2017-06-10T23:38:02.266Z,60.70
2017-06-10T23:40:29.841Z,61.80
2017-06-10T23:42:57.417Z,61.70
2017-06-10T23:45:25.766Z,62.00
2017-06-10T23:47:53.320Z,62.00
2017-06-10T23:50:20.900Z,62.20
2017-06-10T23:52:48.458Z,61.90
2017-06-10T23:55:16.038Z,62.00
2017-06-10T23:57:43.610Z,62.00
